Fukushima Airport


Codes: RJSF/FKS
Name: Fukushima Airport
City: Sukagawa
Country: Japan
Elevation: 1221 ft.
Website:
Wikipedia:

Photos at Fukushima Airport


   Photos courtesy of SpottingLog. You can add your own sightings and photos by signing up for a free trial today.



No photos found.

Weather at Fukushima Airport


Time (UTC)DescriptionTempratureWindCloud coverageVisibilityPressureHumidity
21-Feb-2024 03:00Light Rain3°C2 mph, N75%10000m1022hPa100%
21-Feb-2024 06:00Light Rain3°C2 mph, E83%10000m1021hPa98%
21-Feb-2024 09:00Light Rain3°C4 mph, N92%10000m1020hPa97%
21-Feb-2024 12:00Light Rain1°C7 mph, N100%2972m1020hPa97%
21-Feb-2024 15:00Snow1°C4 mph, N100%3708m1019hPa97%
21-Feb-2024 18:00Light Snow0°C4 mph, N100%483m1019hPa99%
21-Feb-2024 21:00Light Snow0°C7 mph, N100%6983m1021hPa93%
22-Feb-2024 00:00Light Snow0°C9 mph, NW100%6904m1023hPa88%
22-Feb-2024 03:00Light Snow1°C9 mph, NW100%8813m1023hPa86%
22-Feb-2024 06:00Light Snow2°C9 mph, NW97%10000m1023hPa78%
22-Feb-2024 09:00Overcast Clouds-1°C9 mph, NW88%10000m1026hPa82%
22-Feb-2024 12:00Broken Clouds-3°C4 mph, NW62%10000m1026hPa87%
22-Feb-2024 15:00Overcast Clouds-3°C2 mph, N92%10000m1027hPa90%
22-Feb-2024 18:00Overcast Clouds-2°C4 mph, N96%10000m1026hPa85%
22-Feb-2024 21:00Light Snow-3°C2 mph, N100%10000m1026hPa86%
23-Feb-2024 00:00Light Snow-1°C7 mph, N100%10000m1027hPa78%
23-Feb-2024 03:00Overcast Clouds1°C9 mph, NW100%10000m1025hPa72%
23-Feb-2024 06:00Overcast Clouds2°C11 mph, NW100%10000m1025hPa67%
23-Feb-2024 09:00Broken Clouds-1°C11 mph, NW71%10000m1026hPa77%
23-Feb-2024 12:00Scattered Clouds-3°C7 mph, NW48%10000m1027hPa81%
23-Feb-2024 15:00Overcast Clouds-2°C9 mph, NW95%10000m1027hPa79%
23-Feb-2024 18:00Overcast Clouds-2°C9 mph, NW85%10000m1028hPa80%
23-Feb-2024 21:00Overcast Clouds-3°C4 mph, N98%10000m1029hPa87%
24-Feb-2024 00:00Broken Clouds1°C9 mph, NW79%10000m1029hPa64%
24-Feb-2024 03:00Broken Clouds4°C9 mph, NW76%10000m1027hPa54%
24-Feb-2024 06:00Broken Clouds5°C7 mph, NW57%10000m1026hPa55%
24-Feb-2024 09:00Overcast Clouds0°C2 mph, N96%10000m1029hPa81%
24-Feb-2024 12:00Overcast Clouds-1°C2 mph, N98%10000m1029hPa90%
24-Feb-2024 15:00Overcast Clouds-1°C2 mph, E100%10000m1029hPa92%
24-Feb-2024 18:00Overcast Clouds-2°C2 mph, SE100%10000m1028hPa93%
24-Feb-2024 21:00Overcast Clouds-1°C2 mph, E100%10000m1027hPa89%
25-Feb-2024 00:00Light Snow1°C2 mph, N100%1220m1027hPa91%
25-Feb-2024 03:00Light Snow2°C2 mph, N100%28m1025hPa98%
25-Feb-2024 06:00Light Snow2°C2 mph, N100%22m1023hPa100%
25-Feb-2024 09:00Light Snow1°C4 mph, N100%29m1023hPa100%
25-Feb-2024 12:00Snow0°C4 mph, N100%40m1023hPa99%
25-Feb-2024 15:00Moderate Rain1°C7 mph, N100%74m1021hPa99%
25-Feb-2024 18:00Moderate Rain1°C9 mph, NE100%40m1020hPa99%
25-Feb-2024 21:00Light Snow1°C9 mph, N100%41m1020hPa98%
26-Feb-2024 00:00Overcast Clouds1°C9 mph, N100%2777m1021hPa98%